sensor_id;sensor_type;location;lat;lon;timestamp;temperature;humidity
5697;DHT22;2873;50.966;7.210;2023-02-28T00:00:26;3.10;99.90
5697;DHT22;2873;50.966;7.210;2023-02-28T00:02:51;3.10;99.90
5697;DHT22;2873;50.966;7.210;2023-02-28T00:05:19;3.10;99.90
5697;DHT22;2873;50.966;7.210;2023-02-28T00:07:46;3.10;99.90
5697;DHT22;2873;50.966;7.210;2023-02-28T00:10:15;3.10;99.90
5697;DHT22;2873;50.966;7.210;2023-02-28T00:12:41;3.00;99.90
5697;DHT22;2873;50.966;7.210;2023-02-28T00:15:09;2.90;99.90
5697;DHT22;2873;50.966;7.210;2023-02-28T00:17:35;2.90;99.90
5697;DHT22;2873;50.966;7.210;2023-02-28T00:20:02;2.90;99.90
5697;DHT22;2873;50.966;7.210;2023-02-28T00:22:42;2.80;99.90
5697;DHT22;2873;50.966;7.210;2023-02-28T00:25:14;2.80;99.90
5697;DHT22;2873;50.966;7.210;2023-02-28T00:27:41;2.80;99.90
5697;DHT22;2873;50.966;7.210;2023-02-28T00:30:11;2.80;99.90
5697;DHT22;2873;50.966;7.210;2023-02-28T00:32:37;2.80;99.90
5697;DHT22;2873;50.966;7.210;2023-02-28T00:35:02;2.80;99.90
5697;DHT22;2873;50.966;7.210;2023-02-28T00:37:28;2.70;99.90
5697;DHT22;2873;50.966;7.210;2023-02-28T00:39:53;2.70;99.90
5697;DHT22;2873;50.966;7.210;2023-02-28T00:42:19;2.60;99.90
5697;DHT22;2873;50.966;7.210;2023-02-28T00:44:45;2.60;99.90
5697;DHT22;2873;50.966;7.210;2023-02-28T00:47:10;2.60;99.90
5697;DHT22;2873;50.966;7.210;2023-02-28T00:49:36;2.50;99.90
5697;DHT22;2873;50.966;7.210;2023-02-28T00:52:01;2.50;99.90
5697;DHT22;2873;50.966;7.210;2023-02-28T00:54:27;2.50;99.90
5697;DHT22;2873;50.966;7.210;2023-02-28T00:56:52;2.60;99.90
5697;DHT22;2873;50.966;7.210;2023-02-28T00:59:18;2.50;99.90
5697;DHT22;2873;50.966;7.210;2023-02-28T01:01:44;2.50;99.90
5697;DHT22;2873;50.966;7.210;2023-02-28T01:04:11;2.50;99.90
5697;DHT22;2873;50.966;7.210;2023-02-28T01:06:37;2.50;99.90
5697;DHT22;2873;50.966;7.210;2023-02-28T01:09:05;2.50;99.90
5697;DHT22;2873;50.966;7.210;2023-02-28T01:11:31;2.40;99.90
5697;DHT22;2873;50.966;7.210;2023-02-28T01:13:57;2.50;99.90
5697;DHT22;2873;50.966;7.210;2023-02-28T01:16:23;2.50;99.90
5697;DHT22;2873;50.966;7.210;2023-02-28T01:18:49;2.40;99.90
5697;DHT22;2873;50.966;7.210;2023-02-28T01:21:17;2.30;99.90
5697;DHT22;2873;50.966;7.210;2023-02-28T01:23:43;2.40;99.90
5697;DHT22;2873;50.966;7.210;2023-02-28T01:26:12;2.40;99.90
5697;DHT22;2873;50.966;7.210;2023-02-28T01:28:38;2.30;99.90
5697;DHT22;2873;50.966;7.210;2023-02-28T01:31:04;2.20;99.90
5697;DHT22;2873;50.966;7.210;2023-02-28T01:33:31;2.20;99.90
5697;DHT22;2873;50.966;7.210;2023-02-28T01:36:00;2.20;99.90
5697;DHT22;2873;50.966;7.210;2023-02-28T01:38:26;2.20;99.90
5697;DHT22;2873;50.966;7.210;2023-02-28T01:40:52;2.20;99.90
5697;DHT22;2873;50.966;7.210;2023-02-28T01:43:23;2.20;99.90
5697;DHT22;2873;50.966;7.210;2023-02-28T01:45:50;2.30;99.90
5697;DHT22;2873;50.966;7.210;2023-02-28T01:48:16;2.20;99.90
5697;DHT22;2873;50.966;7.210;2023-02-28T01:50:45;2.20;99.90
5697;DHT22;2873;50.966;7.210;2023-02-28T01:53:15;2.20;99.90
5697;DHT22;2873;50.966;7.210;2023-02-28T01:55:46;2.20;99.90
5697;DHT22;2873;50.966;7.210;2023-02-28T01:58:13;2.20;99.90
5697;DHT22;2873;50.966;7.210;2023-02-28T02:00:39;2.20;99.90
5697;DHT22;2873;50.966;7.210;2023-02-28T02:03:13;2.10;99.90
5697;DHT22;2873;50.966;7.210;2023-02-28T02:05:40;2.10;99.90
5697;DHT22;2873;50.966;7.210;2023-02-28T02:08:12;2.00;99.90
5697;DHT22;2873;50.966;7.210;2023-02-28T02:10:52;2.00;99.90
5697;DHT22;2873;50.966;7.210;2023-02-28T02:18:46;1.90;99.90
5697;DHT22;2873;50.966;7.210;2023-02-28T02:24:33;1.90;99.90
5697;DHT22;2873;50.966;7.210;2023-02-28T02:30:27;1.90;99.90
5697;DHT22;2873;50.966;7.210;2023-02-28T02:43:37;1.80;99.90
5697;DHT22;2873;50.966;7.210;2023-02-28T02:46:14;1.70;99.90
5697;DHT22;2873;50.966;7.210;2023-02-28T02:48:44;1.70;99.90
5697;DHT22;2873;50.966;7.210;2023-02-28T02:51:16;1.80;99.90
5697;DHT22;2873;50.966;7.210;2023-02-28T02:54:02;1.80;99.90
5697;DHT22;2873;50.966;7.210;2023-02-28T02:56:31;1.80;99.90
5697;DHT22;2873;50.966;7.210;2023-02-28T02:59:06;1.80;99.90
5697;DHT22;2873;50.966;7.210;2023-02-28T03:01:34;1.70;99.90
5697;DHT22;2873;50.966;7.210;2023-02-28T03:04:13;1.80;99.90
5697;DHT22;2873;50.966;7.210;2023-02-28T03:06:40;1.80;99.90
5697;DHT22;2873;50.966;7.210;2023-02-28T03:09:06;1.80;99.90
5697;DHT22;2873;50.966;7.210;2023-02-28T03:11:32;1.80;99.90
5697;DHT22;2873;50.966;7.210;2023-02-28T03:19:34;1.70;99.90
5697;DHT22;2873;50.966;7.210;2023-02-28T03:22:14;1.70;99.90
5697;DHT22;2873;50.966;7.210;2023-02-28T03:24:56;1.60;99.90
5697;DHT22;2873;50.966;7.210;2023-02-28T03:27:30;1.70;99.90
5697;DHT22;2873;50.966;7.210;2023-02-28T03:29:58;1.60;99.90
5697;DHT22;2873;50.966;7.210;2023-02-28T03:32:42;1.60;99.90
5697;DHT22;2873;50.966;7.210;2023-02-28T03:35:20;1.60;99.90
5697;DHT22;2873;50.966;7.210;2023-02-28T03:37:59;1.60;99.90
5697;DHT22;2873;50.966;7.210;2023-02-28T03:40:30;1.60;99.90
5697;DHT22;2873;50.966;7.210;2023-02-28T03:43:01;1.50;99.90
5697;DHT22;2873;50.966;7.210;2023-02-28T03:45:33;1.50;99.90
5697;DHT22;2873;50.966;7.210;2023-02-28T03:48:16;1.50;99.90
5697;DHT22;2873;50.966;7.210;2023-02-28T03:50:47;1.50;99.90
5697;DHT22;2873;50.966;7.210;2023-02-28T03:53:29;1.40;99.90
5697;DHT22;2873;50.966;7.210;2023-02-28T03:56:18;1.40;99.90
5697;DHT22;2873;50.966;7.210;2023-02-28T04:01:23;1.40;99.90
5697;DHT22;2873;50.966;7.210;2023-02-28T04:03:50;1.50;99.90
5697;DHT22;2873;50.966;7.210;2023-02-28T04:06:21;1.30;99.90
5697;DHT22;2873;50.966;7.210;2023-02-28T04:08:48;1.30;99.90
5697;DHT22;2873;50.966;7.210;2023-02-28T04:11:33;1.30;99.90
5697;DHT22;2873;50.966;7.210;2023-02-28T04:14:00;1.20;99.90
5697;DHT22;2873;50.966;7.210;2023-02-28T04:16:26;1.20;99.90
5697;DHT22;2873;50.966;7.210;2023-02-28T04:18:51;1.20;99.90
5697;DHT22;2873;50.966;7.210;2023-02-28T04:21:17;1.10;99.90
5697;DHT22;2873;50.966;7.210;2023-02-28T04:23:46;1.20;99.90
5697;DHT22;2873;50.966;7.210;2023-02-28T04:26:11;1.20;99.90
5697;DHT22;2873;50.966;7.210;2023-02-28T04:28:38;1.30;99.90
5697;DHT22;2873;50.966;7.210;2023-02-28T04:31:04;1.20;99.90
5697;DHT22;2873;50.966;7.210;2023-02-28T04:33:31;1.10;99.90
5697;DHT22;2873;50.966;7.210;2023-02-28T04:36:01;1.20;99.90
5697;DHT22;2873;50.966;7.210;2023-02-28T04:38:28;1.20;99.90
5697;DHT22;2873;50.966;7.210;2023-02-28T04:40:53;1.10;99.90
5697;DHT22;2873;50.966;7.210;2023-02-28T04:43:21;1.10;99.90
5697;DHT22;2873;50.966;7.210;2023-02-28T04:45:47;1.10;99.90
5697;DHT22;2873;50.966;7.210;2023-02-28T04:48:12;1.10;99.90
5697;DHT22;2873;50.966;7.210;2023-02-28T04:50:38;1.10;99.90
5697;DHT22;2873;50.966;7.210;2023-02-28T04:53:03;1.10;99.90
5697;DHT22;2873;50.966;7.210;2023-02-28T04:55:29;1.00;99.90
5697;DHT22;2873;50.966;7.210;2023-02-28T04:57:54;1.10;99.90
5697;DHT22;2873;50.966;7.210;2023-02-28T05:00:20;1.00;99.90
5697;DHT22;2873;50.966;7.210;2023-02-28T05:02:46;1.00;99.90
5697;DHT22;2873;50.966;7.210;2023-02-28T05:05:11;1.00;99.90
5697;DHT22;2873;50.966;7.210;2023-02-28T05:07:43;1.10;99.90
5697;DHT22;2873;50.966;7.210;2023-02-28T05:10:10;1.00;99.90
5697;DHT22;2873;50.966;7.210;2023-02-28T05:12:35;1.00;99.90
5697;DHT22;2873;50.966;7.210;2023-02-28T05:15:01;1.00;99.90
5697;DHT22;2873;50.966;7.210;2023-02-28T05:17:27;1.10;99.90
5697;DHT22;2873;50.966;7.210;2023-02-28T05:19:53;1.10;99.90
5697;DHT22;2873;50.966;7.210;2023-02-28T05:22:19;1.00;99.90
5697;DHT22;2873;50.966;7.210;2023-02-28T05:24:44;1.00;99.90
5697;DHT22;2873;50.966;7.210;2023-02-28T05:27:10;1.00;99.90
5697;DHT22;2873;50.966;7.210;2023-02-28T05:29:36;1.00;99.90
5697;DHT22;2873;50.966;7.210;2023-02-28T05:32:09;0.90;99.90
5697;DHT22;2873;50.966;7.210;2023-02-28T05:34:35;0.90;99.90
5697;DHT22;2873;50.966;7.210;2023-02-28T05:37:01;0.90;99.90
5697;DHT22;2873;50.966;7.210;2023-02-28T05:39:26;0.90;99.90
5697;DHT22;2873;50.966;7.210;2023-02-28T05:41:52;0.90;99.90
5697;DHT22;2873;50.966;7.210;2023-02-28T05:44:17;0.90;99.90
5697;DHT22;2873;50.966;7.210;2023-02-28T05:46:43;0.90;99.90
5697;DHT22;2873;50.966;7.210;2023-02-28T05:49:08;0.80;99.90
5697;DHT22;2873;50.966;7.210;2023-02-28T05:51:34;0.80;99.90
5697;DHT22;2873;50.966;7.210;2023-02-28T05:54:01;0.80;99.90
5697;DHT22;2873;50.966;7.210;2023-02-28T05:56:28;0.80;99.90
5697;DHT22;2873;50.966;7.210;2023-02-28T05:58:53;0.80;99.90
5697;DHT22;2873;50.966;7.210;2023-02-28T06:01:34;0.90;99.90
5697;DHT22;2873;50.966;7.210;2023-02-28T06:04:01;0.90;99.90
5697;DHT22;2873;50.966;7.210;2023-02-28T06:06:26;0.90;99.90
5697;DHT22;2873;50.966;7.210;2023-02-28T06:08:52;0.80;99.90
5697;DHT22;2873;50.966;7.210;2023-02-28T06:11:18;0.80;99.90
5697;DHT22;2873;50.966;7.210;2023-02-28T06:13:45;0.70;99.90
5697;DHT22;2873;50.966;7.210;2023-02-28T06:16:11;0.80;99.90
5697;DHT22;2873;50.966;7.210;2023-02-28T06:18:37;0.70;99.90
5697;DHT22;2873;50.966;7.210;2023-02-28T06:21:02;0.70;99.90
5697;DHT22;2873;50.966;7.210;2023-02-28T06:23:28;0.80;99.90
5697;DHT22;2873;50.966;7.210;2023-02-28T06:25:54;0.70;99.90
5697;DHT22;2873;50.966;7.210;2023-02-28T06:28:24;0.70;99.90
5697;DHT22;2873;50.966;7.210;2023-02-28T06:30:49;0.70;99.90
5697;DHT22;2873;50.966;7.210;2023-02-28T06:33:15;0.70;99.90
5697;DHT22;2873;50.966;7.210;2023-02-28T06:35:43;0.60;99.90
5697;DHT22;2873;50.966;7.210;2023-02-28T06:38:09;0.60;99.90
5697;DHT22;2873;50.966;7.210;2023-02-28T06:40:35;0.70;99.90
5697;DHT22;2873;50.966;7.210;2023-02-28T06:43:02;0.70;99.90
5697;DHT22;2873;50.966;7.210;2023-02-28T06:45:27;0.70;99.90
5697;DHT22;2873;50.966;7.210;2023-02-28T06:47:54;0.60;99.90
5697;DHT22;2873;50.966;7.210;2023-02-28T06:50:21;0.70;99.90
5697;DHT22;2873;50.966;7.210;2023-02-28T06:52:47;0.70;99.90
5697;DHT22;2873;50.966;7.210;2023-02-28T06:55:12;0.70;99.90
5697;DHT22;2873;50.966;7.210;2023-02-28T06:57:38;0.80;99.90
5697;DHT22;2873;50.966;7.210;2023-02-28T07:00:08;0.80;99.90
5697;DHT22;2873;50.966;7.210;2023-02-28T07:02:35;0.80;99.90
5697;DHT22;2873;50.966;7.210;2023-02-28T07:05:01;0.80;99.90
5697;DHT22;2873;50.966;7.210;2023-02-28T07:07:27;0.80;99.90
5697;DHT22;2873;50.966;7.210;2023-02-28T07:09:52;0.90;99.90
5697;DHT22;2873;50.966;7.210;2023-02-28T07:12:18;0.80;99.90
5697;DHT22;2873;50.966;7.210;2023-02-28T07:14:43;0.80;99.90
5697;DHT22;2873;50.966;7.210;2023-02-28T07:17:11;0.80;99.90
5697;DHT22;2873;50.966;7.210;2023-02-28T07:19:40;0.90;99.90
5697;DHT22;2873;50.966;7.210;2023-02-28T07:22:06;0.90;99.90
5697;DHT22;2873;50.966;7.210;2023-02-28T07:24:32;1.00;99.90
5697;DHT22;2873;50.966;7.210;2023-02-28T07:26:58;1.10;99.90
5697;DHT22;2873;50.966;7.210;2023-02-28T07:29:25;1.00;99.90
5697;DHT22;2873;50.966;7.210;2023-02-28T07:31:50;1.10;99.90
5697;DHT22;2873;50.966;7.210;2023-02-28T07:34:19;1.10;99.90
5697;DHT22;2873;50.966;7.210;2023-02-28T07:36:44;1.20;99.90
5697;DHT22;2873;50.966;7.210;2023-02-28T07:39:10;1.20;99.90
5697;DHT22;2873;50.966;7.210;2023-02-28T07:41:36;1.30;99.90
5697;DHT22;2873;50.966;7.210;2023-02-28T07:44:11;1.30;99.90
5697;DHT22;2873;50.966;7.210;2023-02-28T07:46:37;1.40;99.90
5697;DHT22;2873;50.966;7.210;2023-02-28T07:49:04;1.50;99.90
5697;DHT22;2873;50.966;7.210;2023-02-28T07:51:30;1.70;99.90
5697;DHT22;2873;50.966;7.210;2023-02-28T07:53:57;1.80;99.90
5697;DHT22;2873;50.966;7.210;2023-02-28T07:56:22;1.90;99.90
5697;DHT22;2873;50.966;7.210;2023-02-28T07:58:48;2.00;99.90
5697;DHT22;2873;50.966;7.210;2023-02-28T08:01:14;2.00;99.90
5697;DHT22;2873;50.966;7.210;2023-02-28T08:03:40;2.20;99.90
5697;DHT22;2873;50.966;7.210;2023-02-28T08:06:07;2.20;99.90
5697;DHT22;2873;50.966;7.210;2023-02-28T08:08:34;2.30;99.90
5697;DHT22;2873;50.966;7.210;2023-02-28T08:11:01;2.40;99.90
5697;DHT22;2873;50.966;7.210;2023-02-28T08:13:27;2.50;99.90
5697;DHT22;2873;50.966;7.210;2023-02-28T08:15:54;2.60;99.90
5697;DHT22;2873;50.966;7.210;2023-02-28T08:18:20;2.60;99.90
5697;DHT22;2873;50.966;7.210;2023-02-28T08:20:46;2.70;99.90
5697;DHT22;2873;50.966;7.210;2023-02-28T08:23:12;2.80;99.90
5697;DHT22;2873;50.966;7.210;2023-02-28T08:25:37;2.80;99.90
5697;DHT22;2873;50.966;7.210;2023-02-28T08:28:03;2.90;99.90
5697;DHT22;2873;50.966;7.210;2023-02-28T08:30:28;2.90;99.90
5697;DHT22;2873;50.966;7.210;2023-02-28T08:32:54;3.00;99.90
5697;DHT22;2873;50.966;7.210;2023-02-28T08:35:21;3.10;99.90
5697;DHT22;2873;50.966;7.210;2023-02-28T08:37:50;3.30;99.90
5697;DHT22;2873;50.966;7.210;2023-02-28T08:40:16;3.50;99.90
5697;DHT22;2873;50.966;7.210;2023-02-28T08:42:47;3.60;99.90
5697;DHT22;2873;50.966;7.210;2023-02-28T08:45:14;3.70;99.90
5697;DHT22;2873;50.966;7.210;2023-02-28T08:47:40;3.90;99.90
5697;DHT22;2873;50.966;7.210;2023-02-28T08:50:06;3.90;99.90
5697;DHT22;2873;50.966;7.210;2023-02-28T08:52:32;4.00;99.90
5697;DHT22;2873;50.966;7.210;2023-02-28T08:54:58;4.10;99.90
5697;DHT22;2873;50.966;7.210;2023-02-28T08:57:23;4.20;99.90
5697;DHT22;2873;50.966;7.210;2023-02-28T08:59:51;4.30;99.60
5697;DHT22;2873;50.966;7.210;2023-02-28T09:02:17;4.40;99.20
5697;DHT22;2873;50.966;7.210;2023-02-28T09:04:42;4.50;98.70
5697;DHT22;2873;50.966;7.210;2023-02-28T09:07:10;4.60;98.80
5697;DHT22;2873;50.966;7.210;2023-02-28T09:09:36;4.70;98.10
5697;DHT22;2873;50.966;7.210;2023-02-28T09:12:02;4.80;97.50
5697;DHT22;2873;50.966;7.210;2023-02-28T09:14:28;4.80;97.00
5697;DHT22;2873;50.966;7.210;2023-02-28T09:16:53;5.20;96.80
5697;DHT22;2873;50.966;7.210;2023-02-28T09:19:20;6.30;94.30
5697;DHT22;2873;50.966;7.210;2023-02-28T09:21:45;7.70;91.90
5697;DHT22;2873;50.966;7.210;2023-02-28T09:24:11;8.80;90.20
5697;DHT22;2873;50.966;7.210;2023-02-28T09:26:39;9.70;88.70
5697;DHT22;2873;50.966;7.210;2023-02-28T09:29:05;10.20;85.30
5697;DHT22;2873;50.966;7.210;2023-02-28T09:31:32;10.90;83.10
5697;DHT22;2873;50.966;7.210;2023-02-28T09:33:58;11.40;81.20
5697;DHT22;2873;50.966;7.210;2023-02-28T09:36:25;12.10;80.20
5697;DHT22;2873;50.966;7.210;2023-02-28T09:38:52;11.90;75.40
5697;DHT22;2873;50.966;7.210;2023-02-28T09:41:22;12.20;74.80
5697;DHT22;2873;50.966;7.210;2023-02-28T09:43:56;12.60;74.90
5697;DHT22;2873;50.966;7.210;2023-02-28T09:46:28;12.60;73.80
5697;DHT22;2873;50.966;7.210;2023-02-28T09:48:56;13.00;73.50
5697;DHT22;2873;50.966;7.210;2023-02-28T09:51:56;13.10;72.80
5697;DHT22;2873;50.966;7.210;2023-02-28T09:54:23;13.60;72.00
5697;DHT22;2873;50.966;7.210;2023-02-28T09:59:51;14.00;70.70
5697;DHT22;2873;50.966;7.210;2023-02-28T10:04:59;14.00;69.30
5697;DHT22;2873;50.966;7.210;2023-02-28T10:10:37;13.90;67.40
5697;DHT22;2873;50.966;7.210;2023-02-28T10:13:12;14.00;67.40
5697;DHT22;2873;50.966;7.210;2023-02-28T10:15:38;14.30;67.80
5697;DHT22;2873;50.966;7.210;2023-02-28T10:18:09;14.20;66.50
5697;DHT22;2873;50.966;7.210;2023-02-28T10:20:39;14.40;66.60
5697;DHT22;2873;50.966;7.210;2023-02-28T10:26:19;14.50;66.10
5697;DHT22;2873;50.966;7.210;2023-02-28T10:28:45;14.70;66.50
5697;DHT22;2873;50.966;7.210;2023-02-28T10:31:16;14.90;65.30
5697;DHT22;2873;50.966;7.210;2023-02-28T10:33:43;14.80;65.10
5697;DHT22;2873;50.966;7.210;2023-02-28T10:36:16;15.00;63.80
5697;DHT22;2873;50.966;7.210;2023-02-28T10:38:43;15.10;63.70
5697;DHT22;2873;50.966;7.210;2023-02-28T10:41:11;15.10;64.00
5697;DHT22;2873;50.966;7.210;2023-02-28T10:43:39;15.20;63.70
5697;DHT22;2873;50.966;7.210;2023-02-28T10:46:13;15.00;62.40
5697;DHT22;2873;50.966;7.210;2023-02-28T10:48:45;14.50;61.80
5697;DHT22;2873;50.966;7.210;2023-02-28T10:51:15;14.30;62.10
5697;DHT22;2873;50.966;7.210;2023-02-28T10:53:51;13.60;61.80
5697;DHT22;2873;50.966;7.210;2023-02-28T10:56:22;13.20;61.90
5697;DHT22;2873;50.966;7.210;2023-02-28T11:01:44;13.30;63.80
5697;DHT22;2873;50.966;7.210;2023-02-28T11:06:44;13.20;60.30
5697;DHT22;2873;50.966;7.210;2023-02-28T11:09:34;13.40;60.80
5697;DHT22;2873;50.966;7.210;2023-02-28T11:12:06;13.90;62.10
5697;DHT22;2873;50.966;7.210;2023-02-28T11:14:52;14.10;61.00
5697;DHT22;2873;50.966;7.210;2023-02-28T11:17:24;14.40;62.70
5697;DHT22;2873;50.966;7.210;2023-02-28T11:19:55;14.80;62.60
5697;DHT22;2873;50.966;7.210;2023-02-28T11:22:25;14.30;59.20
5697;DHT22;2873;50.966;7.210;2023-02-28T11:24:56;15.00;61.80
5697;DHT22;2873;50.966;7.210;2023-02-28T11:29:59;15.60;62.80
5697;DHT22;2873;50.966;7.210;2023-02-28T11:32:27;15.80;62.30
5697;DHT22;2873;50.966;7.210;2023-02-28T11:37:35;16.20;61.80
5697;DHT22;2873;50.966;7.210;2023-02-28T11:40:02;16.70;62.10
5697;DHT22;2873;50.966;7.210;2023-02-28T11:42:38;16.90;62.10
5697;DHT22;2873;50.966;7.210;2023-02-28T11:53:32;17.80;60.80
5697;DHT22;2873;50.966;7.210;2023-02-28T12:07:03;18.50;58.90
5697;DHT22;2873;50.966;7.210;2023-02-28T12:09:37;18.30;58.10
5697;DHT22;2873;50.966;7.210;2023-02-28T12:14:59;18.40;58.70
5697;DHT22;2873;50.966;7.210;2023-02-28T12:17:47;18.10;57.90
5697;DHT22;2873;50.966;7.210;2023-02-28T12:20:34;17.60;57.00
5697;DHT22;2873;50.966;7.210;2023-02-28T12:28:46;17.20;58.40
5697;DHT22;2873;50.966;7.210;2023-02-28T12:33:51;17.40;57.70
5697;DHT22;2873;50.966;7.210;2023-02-28T12:36:19;17.60;58.40
5697;DHT22;2873;50.966;7.210;2023-02-28T12:38:48;18.00;59.20
5697;DHT22;2873;50.966;7.210;2023-02-28T12:44:09;18.30;58.50
5697;DHT22;2873;50.966;7.210;2023-02-28T12:46:43;18.50;58.30
5697;DHT22;2873;50.966;7.210;2023-02-28T12:49:21;18.90;57.60
5697;DHT22;2873;50.966;7.210;2023-02-28T12:51:49;19.00;57.20
5697;DHT22;2873;50.966;7.210;2023-02-28T12:54:26;19.20;57.00
5697;DHT22;2873;50.966;7.210;2023-02-28T12:57:17;18.60;55.20
5697;DHT22;2873;50.966;7.210;2023-02-28T13:05:19;19.00;56.00
5697;DHT22;2873;50.966;7.210;2023-02-28T13:10:54;19.20;55.20
5697;DHT22;2873;50.966;7.210;2023-02-28T13:13:22;19.30;55.20
5697;DHT22;2873;50.966;7.210;2023-02-28T13:16:02;19.70;55.40
5697;DHT22;2873;50.966;7.210;2023-02-28T13:18:45;19.80;54.40
5697;DHT22;2873;50.966;7.210;2023-02-28T13:21:27;19.90;55.10
5697;DHT22;2873;50.966;7.210;2023-02-28T13:34:38;18.70;53.90
5697;DHT22;2873;50.966;7.210;2023-02-28T13:40:32;19.10;54.70
5697;DHT22;2873;50.966;7.210;2023-02-28T13:43:02;19.10;53.80
5697;DHT22;2873;50.966;7.210;2023-02-28T13:45:28;18.70;53.90
5697;DHT22;2873;50.966;7.210;2023-02-28T13:48:25;18.70;54.10
5697;DHT22;2873;50.966;7.210;2023-02-28T13:50:52;18.80;54.70
5697;DHT22;2873;50.966;7.210;2023-02-28T13:53:41;18.90;54.50
5697;DHT22;2873;50.966;7.210;2023-02-28T13:56:19;18.50;53.60
5697;DHT22;2873;50.966;7.210;2023-02-28T13:59:12;18.50;54.20
5697;DHT22;2873;50.966;7.210;2023-02-28T14:04:50;18.50;54.50
5697;DHT22;2873;50.966;7.210;2023-02-28T14:07:23;18.60;55.00
5697;DHT22;2873;50.966;7.210;2023-02-28T14:10:06;18.70;54.80
5697;DHT22;2873;50.966;7.210;2023-02-28T14:18:24;18.50;53.70
5697;DHT22;2873;50.966;7.210;2023-02-28T14:29:47;18.50;53.40
5697;DHT22;2873;50.966;7.210;2023-02-28T14:32:32;18.30;53.30
5697;DHT22;2873;50.966;7.210;2023-02-28T14:37:42;17.90;52.70
5697;DHT22;2873;50.966;7.210;2023-02-28T14:40:15;17.70;52.60
5697;DHT22;2873;50.966;7.210;2023-02-28T14:42:56;17.60;53.10
5697;DHT22;2873;50.966;7.210;2023-02-28T14:45:22;17.30;53.00
5697;DHT22;2873;50.966;7.210;2023-02-28T14:47:51;17.30;53.90
5697;DHT22;2873;50.966;7.210;2023-02-28T14:50:20;17.30;53.60
5697;DHT22;2873;50.966;7.210;2023-02-28T14:52:46;17.30;53.90
5697;DHT22;2873;50.966;7.210;2023-02-28T14:55:17;17.10;53.30
5697;DHT22;2873;50.966;7.210;2023-02-28T14:58:04;17.30;54.30
5697;DHT22;2873;50.966;7.210;2023-02-28T15:00:37;16.70;52.70
5697;DHT22;2873;50.966;7.210;2023-02-28T15:03:23;16.80;53.40
5697;DHT22;2873;50.966;7.210;2023-02-28T15:05:58;16.30;53.10
5697;DHT22;2873;50.966;7.210;2023-02-28T15:08:24;15.90;53.00
5697;DHT22;2873;50.966;7.210;2023-02-28T15:10:58;16.00;54.20
5697;DHT22;2873;50.966;7.210;2023-02-28T15:16:37;16.30;55.60
5697;DHT22;2873;50.966;7.210;2023-02-28T15:19:22;16.30;55.20
5697;DHT22;2873;50.966;7.210;2023-02-28T15:21:52;16.40;55.40
5697;DHT22;2873;50.966;7.210;2023-02-28T15:24:20;16.40;55.30
5697;DHT22;2873;50.966;7.210;2023-02-28T15:26:56;16.50;55.70
5697;DHT22;2873;50.966;7.210;2023-02-28T15:29:25;16.50;55.50
5697;DHT22;2873;50.966;7.210;2023-02-28T15:31:56;16.30;55.30
5697;DHT22;2873;50.966;7.210;2023-02-28T15:34:43;16.20;55.70
5697;DHT22;2873;50.966;7.210;2023-02-28T15:40:13;15.80;54.60
5697;DHT22;2873;50.966;7.210;2023-02-28T15:42:38;15.60;54.90
5697;DHT22;2873;50.966;7.210;2023-02-28T15:45:04;15.30;55.50
5697;DHT22;2873;50.966;7.210;2023-02-28T15:47:30;15.20;56.10
5697;DHT22;2873;50.966;7.210;2023-02-28T15:50:02;15.10;56.40
5697;DHT22;2873;50.966;7.210;2023-02-28T15:52:38;14.70;56.20
5697;DHT22;2873;50.966;7.210;2023-02-28T15:55:19;14.50;56.40
5697;DHT22;2873;50.966;7.210;2023-02-28T15:57:45;14.20;57.50
5697;DHT22;2873;50.966;7.210;2023-02-28T16:00:15;14.00;56.60
5697;DHT22;2873;50.966;7.210;2023-02-28T16:02:42;13.70;57.10
5697;DHT22;2873;50.966;7.210;2023-02-28T16:07:41;13.40;57.80
5697;DHT22;2873;50.966;7.210;2023-02-28T16:10:10;13.30;57.80
5697;DHT22;2873;50.966;7.210;2023-02-28T16:12:37;13.20;58.10
5697;DHT22;2873;50.966;7.210;2023-02-28T16:15:14;13.00;57.80
5697;DHT22;2873;50.966;7.210;2023-02-28T16:17:42;13.00;58.10
5697;DHT22;2873;50.966;7.210;2023-02-28T16:20:14;12.90;58.40
5697;DHT22;2873;50.966;7.210;2023-02-28T16:22:41;12.70;58.70
5697;DHT22;2873;50.966;7.210;2023-02-28T16:25:11;12.50;58.70
5697;DHT22;2873;50.966;7.210;2023-02-28T16:27:37;12.50;58.90
5697;DHT22;2873;50.966;7.210;2023-02-28T16:30:05;12.40;59.10
5697;DHT22;2873;50.966;7.210;2023-02-28T16:32:33;12.30;59.20
5697;DHT22;2873;50.966;7.210;2023-02-28T16:35:00;12.00;59.40
5697;DHT22;2873;50.966;7.210;2023-02-28T16:37:27;11.90;59.30
5697;DHT22;2873;50.966;7.210;2023-02-28T16:39:52;11.80;59.50
5697;DHT22;2873;50.966;7.210;2023-02-28T16:42:27;11.70;59.20
5697;DHT22;2873;50.966;7.210;2023-02-28T16:44:55;11.60;59.50
5697;DHT22;2873;50.966;7.210;2023-02-28T16:47:21;11.50;59.70
5697;DHT22;2873;50.966;7.210;2023-02-28T16:49:47;11.40;59.80
5697;DHT22;2873;50.966;7.210;2023-02-28T16:52:13;11.10;60.00
5697;DHT22;2873;50.966;7.210;2023-02-28T16:54:40;10.90;60.40
5697;DHT22;2873;50.966;7.210;2023-02-28T16:57:07;10.80;60.70
5697;DHT22;2873;50.966;7.210;2023-02-28T16:59:37;10.70;61.20
5697;DHT22;2873;50.966;7.210;2023-02-28T17:02:12;10.50;61.50
5697;DHT22;2873;50.966;7.210;2023-02-28T17:04:38;10.40;61.30
5697;DHT22;2873;50.966;7.210;2023-02-28T17:07:03;10.20;61.70
5697;DHT22;2873;50.966;7.210;2023-02-28T17:09:29;10.10;62.10
5697;DHT22;2873;50.966;7.210;2023-02-28T17:11:54;10.00;62.50
5697;DHT22;2873;50.966;7.210;2023-02-28T17:14:21;9.70;63.60
5697;DHT22;2873;50.966;7.210;2023-02-28T17:16:48;9.70;64.20
5697;DHT22;2873;50.966;7.210;2023-02-28T17:19:15;9.50;64.50
5697;DHT22;2873;50.966;7.210;2023-02-28T17:21:42;9.40;64.60
5697;DHT22;2873;50.966;7.210;2023-02-28T17:24:09;9.30;65.00
5697;DHT22;2873;50.966;7.210;2023-02-28T17:26:38;9.20;65.40
5697;DHT22;2873;50.966;7.210;2023-02-28T17:29:06;9.10;65.90
5697;DHT22;2873;50.966;7.210;2023-02-28T17:31:36;8.80;66.60
5697;DHT22;2873;50.966;7.210;2023-02-28T17:34:04;8.70;67.30
5697;DHT22;2873;50.966;7.210;2023-02-28T17:36:29;8.60;67.70
5697;DHT22;2873;50.966;7.210;2023-02-28T17:38:55;8.50;67.90
5697;DHT22;2873;50.966;7.210;2023-02-28T17:41:21;8.40;68.00
5697;DHT22;2873;50.966;7.210;2023-02-28T17:43:47;8.30;68.30
5697;DHT22;2873;50.966;7.210;2023-02-28T17:46:16;8.10;68.60
5697;DHT22;2873;50.966;7.210;2023-02-28T17:48:43;8.00;69.10
5697;DHT22;2873;50.966;7.210;2023-02-28T17:51:12;8.00;69.40
5697;DHT22;2873;50.966;7.210;2023-02-28T17:53:37;7.90;69.70
5697;DHT22;2873;50.966;7.210;2023-02-28T17:56:03;7.80;70.00
5697;DHT22;2873;50.966;7.210;2023-02-28T17:58:29;7.80;70.20
5697;DHT22;2873;50.966;7.210;2023-02-28T18:00:56;7.70;70.40
5697;DHT22;2873;50.966;7.210;2023-02-28T18:03:22;7.60;70.50
5697;DHT22;2873;50.966;7.210;2023-02-28T18:05:49;7.50;71.00
5697;DHT22;2873;50.966;7.210;2023-02-28T18:08:15;7.30;71.20
5697;DHT22;2873;50.966;7.210;2023-02-28T18:10:41;7.30;71.60
5697;DHT22;2873;50.966;7.210;2023-02-28T18:13:07;7.30;71.70
5697;DHT22;2873;50.966;7.210;2023-02-28T18:15:33;7.20;71.90
5697;DHT22;2873;50.966;7.210;2023-02-28T18:17:58;7.00;73.00
5697;DHT22;2873;50.966;7.210;2023-02-28T18:20:24;7.00;72.70
5697;DHT22;2873;50.966;7.210;2023-02-28T18:22:49;6.90;73.00
5697;DHT22;2873;50.966;7.210;2023-02-28T18:25:15;6.90;73.20
5697;DHT22;2873;50.966;7.210;2023-02-28T18:27:42;6.80;74.10
5697;DHT22;2873;50.966;7.210;2023-02-28T18:30:30;6.70;73.80
5697;DHT22;2873;50.966;7.210;2023-02-28T18:32:57;6.60;74.00
5697;DHT22;2873;50.966;7.210;2023-02-28T18:35:24;6.60;74.20
5697;DHT22;2873;50.966;7.210;2023-02-28T18:38:14;6.60;74.30
5697;DHT22;2873;50.966;7.210;2023-02-28T18:40:40;6.50;74.10
5697;DHT22;2873;50.966;7.210;2023-02-28T18:43:07;6.50;74.20